Time;durP1;ratioP1;P1;durP2;ratioP2;P2;SDS_P1;SDS_P2;PMS_P1;PMS_P2;Temp;Humidity;BMP_temperature;BMP_pressure;BME280_temperature;BME280_humidity;BME280_pressure;Samples;Min_cycle;Max_cycle;Signal;HPM_P1;HPM_P2
2022/02/23 00:02:08;;;;;;;2.70;1.23;;;;;;;;;;5022336;28;20330;-64
2022/02/23 00:04:40;;;;;;;2.13;0.90;;;;;;;;;;5024864;28;20985;-64
2022/02/23 00:07:09;;;;;;;2.73;1.17;;;;;;;;;;5016217;28;20236;-64
2022/02/23 00:09:41;;;;;;;2.57;1.40;;;;;;;;;;5023354;28;20257;-65
2022/02/23 00:12:24;;;;;;;2.50;1.23;;;;;;;;;;5019163;28;20222;-66
2022/02/23 00:14:57;;;;;;;2.00;1.60;;;;;;;;;;5024157;28;20207;-65
2022/02/23 00:17:28;;;;;;;3.10;1.50;;;;;;;;;;5009637;28;20278;-64
2022/02/23 00:19:59;;;;;;;2.23;1.30;;;;;;;;;;5008160;28;21157;-65
2022/02/23 00:22:30;;;;;;;3.20;1.40;;;;;;;;;;5016322;28;20246;-64
2022/02/23 00:25:03;;;;;;;2.63;1.27;;;;;;;;;;5026003;28;20606;-64
2022/02/23 00:27:33;;;;;;;3.73;1.37;;;;;;;;;;5016686;28;20649;-65
2022/02/23 00:30:05;;;;;;;2.27;1.00;;;;;;;;;;5019590;28;20222;-65
2022/02/23 00:32:34;;;;;;;2.77;1.40;;;;;;;;;;5002388;28;20636;-66
2022/02/23 00:35:07;;;;;;;1.47;1.03;;;;;;;;;;5004591;28;20223;-66
2022/02/23 00:37:36;;;;;;;2.77;1.30;;;;;;;;;;5006072;28;20578;-65
2022/02/23 00:40:05;;;;;;;2.40;1.43;;;;;;;;;;5023049;28;20207;-65
2022/02/23 00:42:35;;;;;;;2.20;1.00;;;;;;;;;;5017288;28;20204;-65
2022/02/23 00:45:05;;;;;;;2.33;1.30;;;;;;;;;;5019467;28;20277;-63
2022/02/23 00:47:40;;;;;;;3.83;1.30;;;;;;;;;;5020440;28;20201;-66
2022/02/23 00:50:12;;;;;;;2.33;1.10;;;;;;;;;;5020537;28;20219;-64
2022/02/23 00:52:39;;;;;;;2.77;1.30;;;;;;;;;;5027766;28;20553;-64
2022/02/23 00:55:12;;;;;;;2.40;1.40;;;;;;;;;;5016189;28;20384;-65
2022/02/23 00:57:43;;;;;;;2.97;1.17;;;;;;;;;;5018691;28;20216;-65
2022/02/23 01:00:16;;;;;;;3.63;1.40;;;;;;;;;;5017220;28;20203;-65
2022/02/23 01:02:46;;;;;;;3.53;1.30;;;;;;;;;;5018802;28;20227;-65
2022/02/23 01:05:18;;;;;;;2.27;1.10;;;;;;;;;;5014965;28;20218;-65
2022/02/23 01:07:49;;;;;;;3.67;1.27;;;;;;;;;;5007958;28;20234;-64
2022/02/23 01:10:19;;;;;;;2.73;1.70;;;;;;;;;;5017361;28;20309;-65
2022/02/23 01:12:53;;;;;;;2.80;1.60;;;;;;;;;;5027424;28;20194;-65
2022/02/23 01:15:23;;;;;;;4.60;1.67;;;;;;;;;;5023857;28;20440;-65
2022/02/23 01:17:57;;;;;;;1.87;1.27;;;;;;;;;;5020307;28;20205;-65
2022/02/23 01:20:29;;;;;;;2.27;1.10;;;;;;;;;;5018976;28;20274;-64
2022/02/23 01:23:01;;;;;;;1.83;1.20;;;;;;;;;;5024458;28;20570;-64
2022/02/23 01:25:31;;;;;;;2.50;1.20;;;;;;;;;;5018219;28;20292;-64
2022/02/23 01:28:05;;;;;;;1.70;1.10;;;;;;;;;;5020876;28;20634;-65
2022/02/23 01:30:36;;;;;;;2.20;1.17;;;;;;;;;;5028543;28;20218;-65
2022/02/23 01:33:04;;;;;;;3.13;1.27;;;;;;;;;;5025576;28;20204;-63
2022/02/23 01:35:36;;;;;;;4.00;1.40;;;;;;;;;;5014889;28;20270;-65
2022/02/23 01:38:08;;;;;;;2.20;1.00;;;;;;;;;;5024956;28;20220;-63
2022/02/23 01:40:37;;;;;;;2.27;1.20;;;;;;;;;;5023374;28;20680;-64
2022/02/23 01:43:05;;;;;;;1.93;1.13;;;;;;;;;;5028071;28;20230;-63
2022/02/23 01:45:35;;;;;;;3.47;1.63;;;;;;;;;;5022658;28;20274;-63
2022/02/23 01:48:12;;;;;;;2.80;1.30;;;;;;;;;;5010356;28;20273;-63
2022/02/23 01:50:44;;;;;;;2.43;1.17;;;;;;;;;;5022106;28;20305;-63
2022/02/23 01:53:17;;;;;;;2.00;1.37;;;;;;;;;;5015169;28;20630;-63
2022/02/23 01:55:54;;;;;;;3.13;1.00;;;;;;;;;;5015716;28;20195;-65
2022/02/23 01:58:27;;;;;;;1.80;1.23;;;;;;;;;;5018502;28;20519;-65
2022/02/23 02:00:59;;;;;;;3.93;1.23;;;;;;;;;;5024781;28;20345;-65
2022/02/23 02:03:30;;;;;;;1.97;1.30;;;;;;;;;;5018007;28;20682;-65
2022/02/23 02:06:00;;;;;;;2.73;1.20;;;;;;;;;;5026966;28;20226;-64
2022/02/23 02:08:28;;;;;;;3.13;1.50;;;;;;;;;;5008212;28;20199;-64
2022/02/23 02:11:01;;;;;;;2.40;1.10;;;;;;;;;;5009198;28;20238;-64
2022/02/23 02:13:30;;;;;;;1.93;1.20;;;;;;;;;;5011619;28;20223;-64
2022/02/23 02:15:59;;;;;;;3.03;1.43;;;;;;;;;;5019042;28;20206;-65
2022/02/23 02:18:32;;;;;;;3.07;1.20;;;;;;;;;;5021923;28;20645;-67
2022/02/23 02:21:03;;;;;;;1.80;0.93;;;;;;;;;;5025109;28;20326;-64
2022/02/23 02:23:34;;;;;;;1.73;1.20;;;;;;;;;;5014364;28;20229;-63
2022/02/23 02:26:05;;;;;;;2.03;1.10;;;;;;;;;;5025156;28;20214;-65
2022/02/23 02:28:37;;;;;;;1.83;1.00;;;;;;;;;;5025761;28;20198;-63
2022/02/23 02:31:09;;;;;;;2.57;1.23;;;;;;;;;;5021363;28;20227;-63
2022/02/23 02:33:40;;;;;;;1.93;0.90;;;;;;;;;;5026864;28;20580;-66
2022/02/23 02:36:13;;;;;;;3.43;1.30;;;;;;;;;;5023578;28;20748;-63
2022/02/23 02:38:45;;;;;;;1.70;1.03;;;;;;;;;;5024562;28;20211;-66
2022/02/23 02:41:17;;;;;;;3.03;1.10;;;;;;;;;;5021538;28;20211;-65
2022/02/23 02:43:46;;;;;;;1.97;1.17;;;;;;;;;;5022368;28;20215;-66
2022/02/23 02:46:16;;;;;;;3.07;1.40;;;;;;;;;;5019377;28;20277;-65
2022/02/23 02:48:53;;;;;;;2.33;1.20;;;;;;;;;;5027745;28;20241;-66
2022/02/23 02:51:32;;;;;;;2.17;1.00;;;;;;;;;;5018550;28;20219;-66
2022/02/23 02:54:05;;;;;;;2.30;0.90;;;;;;;;;;5009004;28;20226;-65
2022/02/23 02:56:33;;;;;;;1.67;0.93;;;;;;;;;;5022307;28;20195;-66
2022/02/23 02:59:03;;;;;;;2.37;1.27;;;;;;;;;;5024632;28;20210;-66
2022/02/23 03:01:32;;;;;;;3.60;1.60;;;;;;;;;;5019830;28;20222;-65
2022/02/23 03:04:04;;;;;;;3.00;1.50;;;;;;;;;;5022830;28;20211;-65
2022/02/23 03:06:36;;;;;;;3.50;1.50;;;;;;;;;;5005851;28;20244;-66
2022/02/23 03:09:07;;;;;;;2.40;1.17;;;;;;;;;;5027132;28;20214;-65
2022/02/23 03:11:51;;;;;;;1.97;1.00;;;;;;;;;;5009750;28;20251;-66
2022/02/23 03:14:21;;;;;;;2.30;1.23;;;;;;;;;;5023629;28;20216;-65
2022/02/23 03:16:55;;;;;;;2.77;1.30;;;;;;;;;;5024348;28;20199;-66
2022/02/23 03:19:26;;;;;;;3.33;1.20;;;;;;;;;;5022763;28;20941;-66
2022/02/23 03:21:58;;;;;;;3.47;1.50;;;;;;;;;;5021559;28;20199;-66
2022/02/23 03:24:29;;;;;;;2.03;0.90;;;;;;;;;;5021919;28;20219;-67
2022/02/23 03:27:01;;;;;;;2.03;1.30;;;;;;;;;;5016283;28;20744;-65
2022/02/23 03:29:33;;;;;;;2.40;1.33;;;;;;;;;;5020477;28;20214;-66
2022/02/23 03:32:08;;;;;;;3.73;1.37;;;;;;;;;;5022962;28;20196;-65
2022/02/23 03:34:38;;;;;;;2.00;1.10;;;;;;;;;;5017928;28;20646;-65
2022/02/23 03:37:08;;;;;;;2.83;1.20;;;;;;;;;;5021080;28;20240;-66
2022/02/23 03:39:35;;;;;;;3.10;1.50;;;;;;;;;;5004330;28;20215;-66
2022/02/23 03:42:09;;;;;;;1.97;1.00;;;;;;;;;;5025584;28;20273;-65
2022/02/23 03:44:41;;;;;;;2.47;1.20;;;;;;;;;;5019119;28;20233;-66
2022/02/23 03:47:08;;;;;;;3.17;1.23;;;;;;;;;;5026731;28;20209;-66
2022/02/23 03:49:37;;;;;;;2.47;1.17;;;;;;;;;;5012747;28;20220;-66
2022/02/23 03:52:07;;;;;;;2.40;1.23;;;;;;;;;;5026513;28;20596;-65
2022/02/23 03:54:36;;;;;;;2.40;1.20;;;;;;;;;;5018056;28;20210;-66
2022/02/23 03:57:07;;;;;;;2.17;1.23;;;;;;;;;;5020893;28;20203;-65
2022/02/23 03:59:42;;;;;;;2.37;1.10;;;;;;;;;;5016218;28;20299;-65
2022/02/23 04:02:37;;;;;;;2.40;1.20;;;;;;;;;;4998480;28;20203;-66
2022/02/23 04:05:08;;;;;;;1.83;1.10;;;;;;;;;;5019193;28;20192;-67
2022/02/23 04:07:38;;;;;;;2.83;1.23;;;;;;;;;;5025452;28;20230;-65
2022/02/23 04:10:09;;;;;;;3.67;1.33;;;;;;;;;;5023449;28;20249;-67
2022/02/23 04:12:46;;;;;;;4.07;1.10;;;;;;;;;;5022444;28;20219;-65
2022/02/23 04:15:18;;;;;;;2.60;1.50;;;;;;;;;;5019383;28;20215;-66
2022/02/23 04:17:47;;;;;;;2.80;1.10;;;;;;;;;;5021078;28;20207;-65
2022/02/23 04:20:19;;;;;;;2.13;1.27;;;;;;;;;;5023152;28;20207;-67
2022/02/23 04:22:49;;;;;;;2.80;0.93;;;;;;;;;;5018739;28;20426;-65
2022/02/23 04:25:22;;;;;;;2.53;1.20;;;;;;;;;;5015890;28;20597;-65
2022/02/23 04:27:53;;;;;;;3.33;1.37;;;;;;;;;;5020337;28;20207;-65
2022/02/23 04:30:25;;;;;;;1.77;1.10;;;;;;;;;;5021478;28;20230;-66
2022/02/23 04:32:58;;;;;;;2.57;1.50;;;;;;;;;;5017070;28;20222;-65
2022/02/23 04:35:27;;;;;;;2.97;1.37;;;;;;;;;;5019044;28;20233;-64
2022/02/23 04:37:58;;;;;;;2.10;1.10;;;;;;;;;;5006155;28;20199;-66
2022/02/23 04:40:28;;;;;;;2.57;1.20;;;;;;;;;;5023451;28;20574;-66
2022/02/23 04:43:11;;;;;;;2.57;1.10;;;;;;;;;;5017462;28;20245;-65
2022/02/23 04:45:41;;;;;;;3.70;1.10;;;;;;;;;;5013675;28;20199;-65
2022/02/23 04:48:13;;;;;;;3.33;1.00;;;;;;;;;;5001826;28;20226;-67
2022/02/23 04:50:56;;;;;;;1.80;1.07;;;;;;;;;;5027682;28;20215;-66
2022/02/23 04:53:27;;;;;;;2.67;1.43;;;;;;;;;;5030645;28;20897;-65
2022/02/23 04:55:57;;;;;;;3.00;1.00;;;;;;;;;;5028113;28;20196;-65
2022/02/23 04:58:28;;;;;;;2.87;1.20;;;;;;;;;;5030175;28;20702;-65
2022/02/23 05:00:59;;;;;;;1.90;1.00;;;;;;;;;;5021881;28;20238;-65
2022/02/23 05:03:33;;;;;;;2.73;1.37;;;;;;;;;;5006760;28;20206;-65
2022/02/23 05:06:07;;;;;;;3.07;1.50;;;;;;;;;;5020332;28;20790;-65
2022/02/23 05:08:40;;;;;;;1.70;1.07;;;;;;;;;;5015987;28;20278;-66
2022/02/23 05:11:23;;;;;;;2.37;0.80;;;;;;;;;;5006190;28;20263;-65
2022/02/23 05:13:53;;;;;;;3.23;1.30;;;;;;;;;;5027176;28;20775;-66
2022/02/23 05:16:23;;;;;;;3.00;1.40;;;;;;;;;;5019324;28;20196;-65
2022/02/23 05:18:55;;;;;;;1.77;1.03;;;;;;;;;;5028950;28;20210;-64
2022/02/23 05:21:26;;;;;;;2.07;1.23;;;;;;;;;;5016618;28;20654;-65
2022/02/23 05:23:58;;;;;;;2.37;1.47;;;;;;;;;;5025414;28;20411;-65
2022/02/23 05:26:29;;;;;;;2.50;1.67;;;;;;;;;;5018950;28;20219;-65
2022/02/23 05:28:59;;;;;;;2.87;1.30;;;;;;;;;;5026109;28;20206;-65
2022/02/23 05:31:30;;;;;;;3.40;1.63;;;;;;;;;;5019906;28;20230;-66
2022/02/23 05:34:11;;;;;;;2.37;1.47;;;;;;;;;;5027209;28;20623;-65
2022/02/23 05:36:41;;;;;;;2.80;1.73;;;;;;;;;;5019698;28;20223;-65
2022/02/23 05:39:12;;;;;;;3.17;1.53;;;;;;;;;;5020270;28;20862;-66
2022/02/23 05:41:50;;;;;;;2.67;1.17;;;;;;;;;;5023651;28;20219;-66
2022/02/23 05:44:22;;;;;;;1.40;1.00;;;;;;;;;;5007784;28;20203;-66
2022/02/23 05:46:53;;;;;;;3.03;1.37;;;;;;;;;;5022276;28;20203;-66
2022/02/23 05:49:25;;;;;;;3.27;1.73;;;;;;;;;;5022561;28;20215;-66
2022/02/23 05:51:54;;;;;;;2.83;1.23;;;;;;;;;;5024546;28;20223;-65
2022/02/23 05:54:23;;;;;;;4.13;1.57;;;;;;;;;;5022170;28;20203;-67
2022/02/23 05:56:54;;;;;;;2.13;1.10;;;;;;;;;;5019215;28;20619;-67
2022/02/23 05:59:32;;;;;;;3.47;1.87;;;;;;;;;;5017893;28;20233;-64
2022/02/23 06:02:05;;;;;;;3.40;1.27;;;;;;;;;;5027187;28;20238;-65
2022/02/23 06:04:36;;;;;;;3.23;1.40;;;;;;;;;;5021558;28;20607;-65
2022/02/23 06:07:06;;;;;;;2.70;1.13;;;;;;;;;;5035033;28;20242;-65
2022/02/23 06:09:38;;;;;;;2.07;1.30;;;;;;;;;;5003593;28;20235;-66
2022/02/23 06:12:08;;;;;;;4.53;1.40;;;;;;;;;;5026109;28;20268;-67
2022/02/23 06:14:40;;;;;;;2.77;1.27;;;;;;;;;;5019502;28;20214;-65
2022/02/23 06:17:09;;;;;;;2.57;1.30;;;;;;;;;;5025095;28;20299;-65
2022/02/23 06:19:37;;;;;;;2.30;1.30;;;;;;;;;;5017970;28;20208;-65
2022/02/23 06:22:07;;;;;;;1.97;1.20;;;;;;;;;;5006864;28;20230;-65
2022/02/23 06:24:38;;;;;;;2.27;1.27;;;;;;;;;;5015568;28;20215;-67
2022/02/23 06:27:09;;;;;;;3.73;1.53;;;;;;;;;;5031066;28;20635;-64
2022/02/23 06:29:55;;;;;;;2.90;1.50;;;;;;;;;;5024186;28;20457;-64
2022/02/23 06:32:25;;;;;;;3.27;1.20;;;;;;;;;;5035481;28;20227;-64
2022/02/23 06:34:56;;;;;;;3.17;1.33;;;;;;;;;;5018482;28;20239;-64
2022/02/23 06:37:27;;;;;;;1.87;1.47;;;;;;;;;;4999537;28;20240;-64
2022/02/23 06:39:57;;;;;;;4.33;1.57;;;;;;;;;;5020601;28;20901;-64
2022/02/23 06:42:26;;;;;;;4.13;1.50;;;;;;;;;;5024037;28;20210;-63
2022/02/23 06:44:57;;;;;;;3.90;1.60;;;;;;;;;;5021396;28;20206;-65
2022/02/23 06:47:28;;;;;;;5.27;2.23;;;;;;;;;;5017087;28;20207;-65
2022/02/23 06:50:00;;;;;;;3.97;1.83;;;;;;;;;;5018555;28;20207;-63
2022/02/23 06:52:43;;;;;;;6.80;2.10;;;;;;;;;;5018054;28;20294;-64
2022/02/23 06:55:18;;;;;;;4.70;1.90;;;;;;;;;;5022362;28;20240;-64
2022/02/23 06:57:50;;;;;;;5.10;2.20;;;;;;;;;;5020302;28;20269;-64
2022/02/23 07:00:20;;;;;;;5.63;2.37;;;;;;;;;;5019397;28;20245;-64
2022/02/23 07:02:50;;;;;;;5.10;2.40;;;;;;;;;;5005184;28;20199;-64
2022/02/23 07:05:22;;;;;;;4.30;2.13;;;;;;;;;;5024055;28;20191;-64
2022/02/23 07:07:52;;;;;;;3.37;1.90;;;;;;;;;;5019172;28;20242;-65
2022/02/23 07:10:26;;;;;;;5.60;2.30;;;;;;;;;;5024535;28;20238;-63
2022/02/23 07:12:55;;;;;;;5.97;2.30;;;;;;;;;;5016583;28;20201;-63
2022/02/23 07:15:26;;;;;;;5.73;2.93;;;;;;;;;;5024424;28;20642;-65
2022/02/23 07:17:57;;;;;;;6.67;2.87;;;;;;;;;;5016726;28;20719;-64
2022/02/23 07:20:29;;;;;;;3.77;2.27;;;;;;;;;;5006964;28;20203;-65
2022/02/23 07:23:01;;;;;;;5.47;2.53;;;;;;;;;;5025095;28;20191;-65
2022/02/23 07:25:29;;;;;;;6.37;2.53;;;;;;;;;;5023406;28;20286;-66
2022/02/23 07:27:58;;;;;;;7.17;2.80;;;;;;;;;;5015894;28;20215;-63
2022/02/23 07:30:28;;;;;;;8.87;3.40;;;;;;;;;;5017111;28;20207;-65
2022/02/23 07:32:59;;;;;;;5.77;2.60;;;;;;;;;;5015675;28;20206;-65
2022/02/23 07:35:31;;;;;;;9.00;2.90;;;;;;;;;;5004986;28;20228;-67
2022/02/23 07:38:07;;;;;;;4.67;2.40;;;;;;;;;;5017465;28;20592;-67
2022/02/23 07:40:36;;;;;;;7.77;3.00;;;;;;;;;;5024457;28;20197;-69
2022/02/23 07:43:25;;;;;;;4.97;2.10;;;;;;;;;;5008673;28;20583;-68
2022/02/23 07:45:53;;;;;;;4.40;2.23;;;;;;;;;;5021359;28;20206;-65
2022/02/23 07:48:25;;;;;;;6.53;2.53;;;;;;;;;;4999728;28;20239;-67
2022/02/23 07:50:58;;;;;;;4.77;1.90;;;;;;;;;;5019373;28;20194;-65
2022/02/23 07:53:31;;;;;;;10.20;2.27;;;;;;;;;;5017352;28;20202;-63
2022/02/23 07:56:04;;;;;;;4.83;2.10;;;;;;;;;;5020149;28;20199;-63
2022/02/23 07:58:36;;;;;;;5.77;2.60;;;;;;;;;;5019079;28;20203;-63
2022/02/23 08:01:07;;;;;;;6.40;2.60;;;;;;;;;;4998464;28;20215;-65
2022/02/23 08:03:42;;;;;;;5.03;2.30;;;;;;;;;;5019684;28;20213;-67
2022/02/23 08:06:11;;;;;;;7.07;2.70;;;;;;;;;;5018062;28;20234;-62
2022/02/23 08:08:49;;;;;;;7.20;2.40;;;;;;;;;;5020062;28;20198;-62
2022/02/23 08:11:19;;;;;;;7.27;2.57;;;;;;;;;;5015103;28;20717;-62
2022/02/23 08:13:58;;;;;;;6.03;2.53;;;;;;;;;;5018660;28;20222;-63
2022/02/23 08:19:31;;;;;;;5.37;2.67;;;;;;;;;;5020868;28;20206;-62
2022/02/23 08:22:06;;;;;;;46.53;11.53;;;;;;;;;;4993824;28;20207;-62
2022/02/23 08:24:44;;;;;;;52.80;13.70;;;;;;;;;;5020187;28;20309;-63
2022/02/23 08:27:16;;;;;;;54.67;13.07;;;;;;;;;;5019748;28;20253;-63
2022/02/23 08:29:46;;;;;;;36.57;10.63;;;;;;;;;;5012643;28;20402;-62
2022/02/23 08:32:15;;;;;;;32.17;9.80;;;;;;;;;;5003694;28;20231;-65
2022/02/23 08:34:47;;;;;;;30.63;8.97;;;;;;;;;;5025383;28;20294;-65
2022/02/23 08:37:17;;;;;;;27.43;9.40;;;;;;;;;;5004483;28;20231;-64
2022/02/23 08:39:53;;;;;;;21.97;7.63;;;;;;;;;;5026457;28;20210;-65
2022/02/23 08:42:24;;;;;;;21.33;8.13;;;;;;;;;;5022600;28;20196;-65
2022/02/23 08:44:59;;;;;;;18.10;7.17;;;;;;;;;;5025832;28;20281;-65
2022/02/23 08:47:31;;;;;;;17.53;6.93;;;;;;;;;;4993782;28;20701;-66
2022/02/23 08:50:04;;;;;;;15.33;6.30;;;;;;;;;;5024539;28;20203;-65
2022/02/23 08:52:34;;;;;;;16.10;6.40;;;;;;;;;;5021125;28;20283;-65
2022/02/23 08:55:06;;;;;;;14.37;6.07;;;;;;;;;;5026814;28;20194;-65
2022/02/23 08:57:38;;;;;;;17.13;6.03;;;;;;;;;;5022343;28;20203;-67
2022/02/23 09:00:10;;;;;;;15.80;6.15;;;;;;;;;;5014484;28;20423;-67
2022/02/23 09:02:43;;;;;;;14.13;5.57;;;;;;;;;;5021732;28;20218;-66
2022/02/23 09:05:14;;;;;;;9.67;4.30;;;;;;;;;;5023671;28;20218;-67
2022/02/23 09:07:45;;;;;;;12.13;4.67;;;;;;;;;;5024157;28;20238;-66
2022/02/23 09:10:13;;;;;;;11.13;4.90;;;;;;;;;;5017265;28;20210;-64
2022/02/23 09:12:43;;;;;;;12.43;4.40;;;;;;;;;;5015658;28;20314;-65
2022/02/23 09:15:17;;;;;;;9.63;3.80;;;;;;;;;;5019913;28;20213;-64
2022/02/23 09:17:46;;;;;;;8.27;3.93;;;;;;;;;;5021602;28;20214;-63
2022/02/23 09:20:15;;;;;;;7.80;3.83;;;;;;;;;;5000983;28;20250;-64
2022/02/23 09:22:44;;;;;;;6.73;3.53;;;;;;;;;;5022654;28;20660;-65
2022/02/23 09:25:14;;;;;;;8.27;3.63;;;;;;;;;;5015682;28;20289;-65
2022/02/23 09:27:48;;;;;;;7.20;3.80;;;;;;;;;;5023145;28;20203;-65
2022/02/23 09:30:20;;;;;;;9.77;3.43;;;;;;;;;;5018274;28;20183;-64
2022/02/23 09:32:49;;;;;;;7.30;3.40;;;;;;;;;;5009661;28;20227;-64
2022/02/23 09:35:20;;;;;;;7.70;3.50;;;;;;;;;;5016426;28;20211;-67
2022/02/23 09:37:50;;;;;;;5.03;2.93;;;;;;;;;;5014990;28;20528;-67
2022/02/23 09:40:21;;;;;;;6.67;3.57;;;;;;;;;;5019777;28;20639;-64
2022/02/23 09:42:53;;;;;;;5.87;3.03;;;;;;;;;;5020803;28;20210;-64
2022/02/23 09:45:23;;;;;;;7.87;3.03;;;;;;;;;;5019149;28;20231;-64
2022/02/23 09:47:55;;;;;;;6.70;3.50;;;;;;;;;;5017843;28;20225;-65
2022/02/23 09:50:23;;;;;;;4.93;2.70;;;;;;;;;;5006858;28;20261;-65
2022/02/23 09:52:58;;;;;;;5.40;2.87;;;;;;;;;;5026895;28;20245;-66
2022/02/23 09:55:30;;;;;;;6.50;2.47;;;;;;;;;;5020298;28;20213;-64
2022/02/23 09:58:01;;;;;;;6.20;2.67;;;;;;;;;;5023669;28;20195;-64
2022/02/23 10:00:29;;;;;;;2.87;2.07;;;;;;;;;;5003385;28;20203;-65
2022/02/23 10:03:05;;;;;;;6.17;2.43;;;;;;;;;;5018881;28;20207;-65
2022/02/23 10:05:41;;;;;;;3.67;2.13;;;;;;;;;;5010840;28;20207;-63
2022/02/23 10:08:10;;;;;;;5.50;2.33;;;;;;;;;;5024477;28;20275;-65
2022/02/23 10:11:05;;;;;;;5.30;2.13;;;;;;;;;;5019775;28;20214;-65
2022/02/23 10:13:35;;;;;;;6.03;2.17;;;;;;;;;;5016341;28;20245;-64
2022/02/23 10:16:08;;;;;;;4.87;2.50;;;;;;;;;;5024512;28;20199;-68
2022/02/23 10:19:13;;;;;;;3.80;1.80;;;;;;;;;;5022981;28;20544;-67
2022/02/23 10:22:07;;;;;;;5.37;1.90;;;;;;;;;;5020837;28;20222;-64
2022/02/23 10:24:46;;;;;;;4.17;2.17;;;;;;;;;;5023287;28;20188;-63
2022/02/23 10:27:21;;;;;;;4.90;2.03;;;;;;;;;;5016809;28;20221;-67
2022/02/23 10:29:55;;;;;;;3.13;1.70;;;;;;;;;;5024648;28;20199;-67
2022/02/23 10:32:26;;;;;;;5.13;2.63;;;;;;;;;;5015406;28;20666;-67
2022/02/23 10:34:55;;;;;;;4.67;1.90;;;;;;;;;;5019727;28;20199;-68
2022/02/23 10:37:31;;;;;;;2.93;1.80;;;;;;;;;;5014065;28;20901;-65
2022/02/23 10:40:01;;;;;;;4.97;1.83;;;;;;;;;;5025925;28;20215;-63
2022/02/23 10:42:34;;;;;;;3.73;2.10;;;;;;;;;;5017609;28;20278;-62
2022/02/23 10:45:10;;;;;;;4.23;2.10;;;;;;;;;;5022034;28;20195;-62
2022/02/23 10:47:42;;;;;;;2.37;1.33;;;;;;;;;;5016380;28;20215;-63
2022/02/23 10:50:28;;;;;;;3.37;2.00;;;;;;;;;;5020093;28;20222;-65
2022/02/23 10:52:59;;;;;;;4.83;1.93;;;;;;;;;;5017312;28;20211;-66
2022/02/23 10:55:36;;;;;;;2.87;1.77;;;;;;;;;;5017878;28;20192;-66
2022/02/23 10:58:19;;;;;;;3.37;1.73;;;;;;;;;;5021776;28;20945;-66
2022/02/23 11:00:51;;;;;;;2.57;1.50;;;;;;;;;;5021844;28;20564;-66
2022/02/23 11:03:25;;;;;;;4.10;1.60;;;;;;;;;;4997905;28;20214;-66
2022/02/23 11:05:54;;;;;;;3.93;1.50;;;;;;;;;;5018122;28;20215;-65
2022/02/23 11:08:24;;;;;;;3.07;1.60;;;;;;;;;;5002229;28;20214;-65
2022/02/23 11:10:55;;;;;;;2.33;1.43;;;;;;;;;;5025290;28;21064;-65
2022/02/23 11:13:26;;;;;;;5.77;2.17;;;;;;;;;;4996670;28;20216;-67
2022/02/23 11:15:59;;;;;;;3.03;1.60;;;;;;;;;;5024283;28;20195;-64
2022/02/23 11:18:28;;;;;;;2.57;1.50;;;;;;;;;;5020692;28;20310;-64
2022/02/23 11:21:01;;;;;;;2.70;1.37;;;;;;;;;;5023246;28;20199;-63
2022/02/23 11:23:35;;;;;;;3.57;1.63;;;;;;;;;;5005528;28;20685;-64
2022/02/23 11:26:19;;;;;;;4.47;1.80;;;;;;;;;;5023922;28;20210;-63
2022/02/23 11:28:49;;;;;;;3.27;1.50;;;;;;;;;;5020172;28;20638;-63
2022/02/23 11:31:24;;;;;;;3.60;1.50;;;;;;;;;;5019983;28;20214;-63
2022/02/23 11:34:01;;;;;;;3.10;1.40;;;;;;;;;;5020521;28;20216;-63
2022/02/23 11:36:47;;;;;;;2.87;1.67;;;;;;;;;;5021238;28;20520;-65
2022/02/23 11:39:23;;;;;;;3.87;1.77;;;;;;;;;;5012828;28;20370;-66
2022/02/23 11:41:56;;;;;;;3.85;1.70;;;;;;;;;;5021560;28;20415;-66
2022/02/23 11:44:35;;;;;;;4.80;1.50;;;;;;;;;;5021806;28;20207;-66
2022/02/23 11:47:21;;;;;;;3.70;1.57;;;;;;;;;;5025880;28;20870;-64
2022/02/23 11:50:08;;;;;;;3.70;1.80;;;;;;;;;;5002572;28;20678;-64
2022/02/23 11:52:44;;;;;;;1.93;1.20;;;;;;;;;;5023296;28;20223;-67
2022/02/23 11:55:21;;;;;;;4.77;1.63;;;;;;;;;;5017437;28;20203;-66
2022/02/23 11:58:02;;;;;;;4.37;1.70;;;;;;;;;;5017288;28;20195;-64
2022/02/23 12:00:44;;;;;;;3.43;1.67;;;;;;;;;;5019386;28;20545;-66
2022/02/23 12:03:31;;;;;;;4.57;1.30;;;;;;;;;;5017113;28;20215;-66
2022/02/23 12:06:06;;;;;;;2.67;1.40;;;;;;;;;;5021946;28;20241;-67
2022/02/23 12:08:44;;;;;;;5.00;1.60;;;;;;;;;;5019714;28;20211;-66
2022/02/23 12:11:27;;;;;;;3.03;1.50;;;;;;;;;;5016953;28;20226;-66
2022/02/23 12:13:58;;;;;;;6.90;1.60;;;;;;;;;;5018108;28;20242;-66
2022/02/23 12:16:49;;;;;;;2.60;1.47;;;;;;;;;;5009039;28;20634;-64
2022/02/23 12:19:43;;;;;;;2.63;1.50;;;;;;;;;;5010219;28;20214;-64
2022/02/23 12:22:11;;;;;;;1.93;1.30;;;;;;;;;;5017578;28;20203;-62
2022/02/23 12:24:44;;;;;;;3.27;1.63;;;;;;;;;;5020984;28;20218;-63
2022/02/23 12:27:12;;;;;;;3.87;1.70;;;;;;;;;;5018485;28;20807;-63
2022/02/23 12:29:43;;;;;;;2.73;1.50;;;;;;;;;;5014396;28;20240;-63
2022/02/23 12:32:12;;;;;;;4.23;1.30;;;;;;;;;;5020869;28;20226;-66
2022/02/23 12:34:45;;;;;;;2.90;1.27;;;;;;;;;;5017697;28;20200;-67
2022/02/23 12:37:28;;;;;;;3.60;1.30;;;;;;;;;;5014598;28;20203;-66
2022/02/23 12:40:00;;;;;;;3.00;1.40;;;;;;;;;;5010641;28;20205;-67
2022/02/23 12:42:31;;;;;;;3.73;1.70;;;;;;;;;;4997780;28;20207;-67
2022/02/23 12:45:04;;;;;;;4.60;1.73;;;;;;;;;;5001257;28;20210;-67
2022/02/23 12:47:59;;;;;;;3.03;1.40;;;;;;;;;;5020691;28;20292;-63
2022/02/23 12:50:30;;;;;;;3.73;1.23;;;;;;;;;;5011378;28;20226;-66
2022/02/23 12:53:04;;;;;;;2.53;1.23;;;;;;;;;;5011506;28;20220;-67
2022/02/23 12:55:36;;;;;;;2.73;1.30;;;;;;;;;;4998858;28;20192;-66
2022/02/23 12:58:07;;;;;;;4.67;1.13;;;;;;;;;;5014734;28;20191;-66
2022/02/23 13:00:37;;;;;;;3.63;1.40;;;;;;;;;;4993427;28;20247;-68
2022/02/23 13:03:10;;;;;;;2.03;1.10;;;;;;;;;;4985092;28;20789;-66
2022/02/23 13:05:42;;;;;;;3.13;1.60;;;;;;;;;;5014322;28;20553;-67
2022/02/23 13:08:21;;;;;;;4.70;1.40;;;;;;;;;;5013327;28;20203;-68
2022/02/23 13:11:05;;;;;;;1.90;1.20;;;;;;;;;;5019871;28;20273;-67
2022/02/23 13:13:37;;;;;;;4.33;1.40;;;;;;;;;;5016409;28;20701;-66
2022/02/23 13:16:16;;;;;;;2.53;1.30;;;;;;;;;;5022546;28;20691;-64
2022/02/23 13:19:16;;;;;;;3.77;1.37;;;;;;;;;;5023196;28;20630;-63
2022/02/23 13:21:59;;;;;;;2.93;1.30;;;;;;;;;;5030048;28;20207;-67
2022/02/23 13:24:51;;;;;;;1.67;1.10;;;;;;;;;;5018642;28;20265;-66
2022/02/23 13:27:25;;;;;;;4.07;1.17;;;;;;;;;;4997233;28;20229;-67
2022/02/23 13:30:01;;;;;;;3.27;1.40;;;;;;;;;;5018603;28;20207;-66
2022/02/23 13:32:37;;;;;;;3.50;1.20;;;;;;;;;;5017756;28;20240;-67
2022/02/23 13:35:05;;;;;;;2.17;1.10;;;;;;;;;;5016466;28;20218;-62
2022/02/23 13:37:45;;;;;;;2.23;1.20;;;;;;;;;;4998705;28;20207;-62
2022/02/23 13:40:24;;;;;;;1.80;1.17;;;;;;;;;;5023997;28;20193;-65
2022/02/23 13:43:06;;;;;;;4.43;1.33;;;;;;;;;;5025209;28;20210;-65
2022/02/23 13:45:37;;;;;;;3.37;1.40;;;;;;;;;;5021666;28;20199;-65
2022/02/23 13:48:14;;;;;;;2.20;1.17;;;;;;;;;;5022496;28;20210;-66
2022/02/23 13:50:48;;;;;;;2.17;1.10;;;;;;;;;;5018755;28;20251;-63
2022/02/23 13:53:32;;;;;;;3.03;1.20;;;;;;;;;;5020422;28;21033;-64
2022/02/23 13:56:12;;;;;;;2.13;1.07;;;;;;;;;;5018762;28;20191;-64
2022/02/23 13:58:43;;;;;;;2.70;1.27;;;;;;;;;;5022132;28;20203;-66
2022/02/23 14:01:14;;;;;;;2.80;1.40;;;;;;;;;;5018170;28;20210;-65
2022/02/23 14:03:47;;;;;;;3.03;1.30;;;;;;;;;;5025462;28;20203;-66
2022/02/23 14:06:21;;;;;;;2.97;1.43;;;;;;;;;;5020100;28;20265;-62
2022/02/23 14:08:58;;;;;;;3.37;1.40;;;;;;;;;;5017891;28;20218;-63
2022/02/23 14:11:29;;;;;;;2.47;1.20;;;;;;;;;;5015937;28;20234;-66
2022/02/23 14:14:17;;;;;;;4.03;1.40;;;;;;;;;;5024185;28;20238;-65
2022/02/23 14:16:53;;;;;;;2.37;0.97;;;;;;;;;;5013097;28;20197;-65
2022/02/23 14:19:28;;;;;;;2.63;1.10;;;;;;;;;;5004532;28;20695;-65
2022/02/23 14:22:20;;;;;;;2.70;1.33;;;;;;;;;;5021458;28;20230;-62
2022/02/23 14:25:00;;;;;;;2.10;1.30;;;;;;;;;;5034659;28;20204;-62
2022/02/23 14:27:33;;;;;;;3.00;1.10;;;;;;;;;;5027455;28;20329;-62
2022/02/23 14:30:29;;;;;;;4.17;1.40;;;;;;;;;;5011633;28;20713;-62
2022/02/23 14:33:02;;;;;;;3.20;1.17;;;;;;;;;;5020912;28;20281;-62
2022/02/23 14:35:31;;;;;;;3.57;1.53;;;;;;;;;;5017895;28;20211;-63
2022/02/23 14:38:06;;;;;;;5.00;1.10;;;;;;;;;;5020913;28;20637;-62
2022/02/23 14:40:38;;;;;;;2.70;1.13;;;;;;;;;;5017950;28;20265;-63
2022/02/23 14:43:09;;;;;;;2.50;1.03;;;;;;;;;;5020289;28;20660;-63
2022/02/23 14:45:41;;;;;;;2.57;1.10;;;;;;;;;;5026955;28;20201;-66
2022/02/23 14:48:10;;;;;;;4.23;1.03;;;;;;;;;;5024259;28;20195;-65
2022/02/23 14:50:41;;;;;;;2.87;1.10;;;;;;;;;;5001552;28;20222;-66
2022/02/23 14:53:11;;;;;;;3.40;1.07;;;;;;;;;;5020344;28;20223;-66
2022/02/23 14:55:44;;;;;;;2.43;1.20;;;;;;;;;;5018215;28;20200;-65
2022/02/23 14:58:19;;;;;;;2.67;1.20;;;;;;;;;;5021538;28;20191;-65
2022/02/23 15:00:52;;;;;;;2.90;1.03;;;;;;;;;;5024318;28;20194;-63
2022/02/23 15:03:32;;;;;;;3.63;1.30;;;;;;;;;;5020233;28;20222;-61
2022/02/23 15:06:04;;;;;;;1.97;1.10;;;;;;;;;;5016430;28;20264;-65
2022/02/23 15:08:41;;;;;;;4.47;1.20;;;;;;;;;;5006908;28;20195;-65
2022/02/23 15:11:11;;;;;;;4.13;1.20;;;;;;;;;;5004146;28;20218;-62
2022/02/23 15:13:41;;;;;;;3.07;1.20;;;;;;;;;;5001514;28;20317;-64
2022/02/23 15:16:16;;;;;;;3.07;1.33;;;;;;;;;;5007862;28;20204;-65
2022/02/23 15:18:54;;;;;;;3.97;1.20;;;;;;;;;;5020914;28;20199;-68
2022/02/23 15:21:24;;;;;;;3.80;1.47;;;;;;;;;;5005299;28;20848;-67
2022/02/23 15:23:54;;;;;;;3.60;1.63;;;;;;;;;;5016595;28;20594;-66